Skip Navigation LinksHome page > Weather > Current weather Skip Navigation Links

Current Weather

Miramar Mcas/Mitscher Field, San Diego

For information only: do not use for flight planning or navigation.
Latest weather
Observation time Thursday, January 27, 2022 7:55 PM PST
Local time Thursday, January 27, 2022 9:03 PM PST
Flight conditions Visual Meteorological Conditions
Winds
Wind speed calm
Visibility 10 mi.
Sky condition
Ceiling unlimited
Sky clear
Temperature 44°F
Dewpoint 36°F
Altimeter 30.17 in.Hg
Derived measurements
Relative humidity 73%
Wind chill 44°F
Density altitude -700 ft.
Sea-level pressure 30.16 in.Hg
Remarks
System requires maintenance.
Automated weather observing station with precipitation discriminator.
METAR KNKX 280355Z 00000KT 10SM CLR 07/02 A3017 RMK AO2 SLP215 T00670022 $

Settings

Location code

InnerDrive.Weather 4.0.6770.0 Release CLR 4.0.30319.42000
Copyright ©2018 Inner Drive Technology. All rights reserved. Portions Copyright ©1986-2018 David Braverman.

Find weather

Site navigation


Skip Navigation Links

Place info

Page info

PayPal - The safer, easier way to pay online!

Return home.

Copyright ©2022 Inner Drive Technology. Purveyors of fine, hand-crafted computer software. Page printed 2022-01-28T05:03:59 UTC.